Time;durP1;ratioP1;P1;durP2;ratioP2;P2;SDS_P1;SDS_P2;PMS_P1;PMS_P2;Temp;Humidity;BMP_temperature;BMP_pressure;BME280_temperature;BME280_humidity;BME280_pressure;Samples;Min_cycle;Max_cycle;Signal;HPM_P1;HPM_P2
2022/04/11 00:01:19;;;;;;;8.33;3.62;;;19.60;44.30;;;;;;1874005;76;21125;-59
2022/04/11 00:03:46;;;;;;;8.08;3.33;;;19.60;44.10;;;;;;1874490;76;21121;-56
2022/04/11 00:06:14;;;;;;;5.25;2.83;;;19.60;44.10;;;;;;1876916;76;21121;-56
2022/04/11 00:08:41;;;;;;;6.40;2.70;;;19.60;44.10;;;;;;1875581;76;21132;-56
2022/04/11 00:11:08;;;;;;;5.10;2.98;;;19.60;44.10;;;;;;1874717;76;21216;-56
2022/04/11 00:13:36;;;;;;;8.00;3.40;;;19.60;44.10;;;;;;1875346;76;21187;-55
2022/04/11 00:16:03;;;;;;;7.03;3.33;;;19.60;43.90;;;;;;1875061;76;21116;-55
2022/04/11 00:18:31;;;;;;;5.90;2.58;;;19.60;43.90;;;;;;1875671;76;21384;-55
2022/04/11 00:20:58;;;;;;;5.12;2.75;;;19.50;43.90;;;;;;1875205;76;21121;-55
2022/04/11 00:23:25;;;;;;;10.48;2.98;;;19.50;44.00;;;;;;1874704;76;21092;-53
2022/04/11 00:25:53;;;;;;;5.10;2.90;;;19.50;43.90;;;;;;1875135;76;21607;-53
2022/04/11 00:28:20;;;;;;;5.80;2.85;;;19.50;43.90;;;;;;1874766;76;21172;-57
2022/04/11 00:30:47;;;;;;;6.33;3.17;;;19.50;43.80;;;;;;1875605;76;21136;-56
2022/04/11 00:33:15;;;;;;;7.15;3.17;;;19.50;43.80;;;;;;1874950;76;21106;-54
2022/04/11 00:35:42;;;;;;;5.22;2.95;;;19.50;43.90;;;;;;1874885;76;21149;-56
2022/04/11 00:38:09;;;;;;;5.50;2.62;;;19.50;43.80;;;;;;1875107;76;21113;-56
2022/04/11 00:40:37;;;;;;;5.85;3.00;;;19.50;43.70;;;;;;1875010;76;21215;-57
2022/04/11 00:43:04;;;;;;;6.47;3.00;;;19.50;43.70;;;;;;1862238;76;21068;-54
2022/04/11 00:45:32;;;;;;;7.60;2.83;;;19.50;43.70;;;;;;1855046;77;21725;-55
2022/04/11 00:47:59;;;;;;;7.22;2.98;;;19.50;43.70;;;;;;1855009;77;21174;-54
2022/04/11 00:50:26;;;;;;;7.15;2.95;;;19.50;43.60;;;;;;1855136;77;21575;-54
2022/04/11 00:52:54;;;;;;;6.12;2.95;;;19.50;43.20;;;;;;1855019;77;21121;-55
2022/04/11 00:55:23;;;;;;;6.97;3.10;;;19.50;43.50;;;;;;1854946;77;21552;-54
2022/04/11 00:57:50;;;;;;;4.92;3.08;;;19.50;43.70;;;;;;1854963;77;21099;-55
2022/04/11 01:00:18;;;;;;;9.48;2.98;;;19.50;43.60;;;;;;1855004;77;21090;-58
2022/04/11 01:02:45;;;;;;;7.97;2.90;;;19.50;43.80;;;;;;1854879;77;21119;-54
2022/04/11 01:05:13;;;;;;;4.40;2.65;;;19.50;43.50;;;;;;1854772;77;21082;-55
2022/04/11 01:07:42;;;;;;;5.00;2.90;;;19.50;43.70;;;;;;1855143;77;21131;-55
2022/04/11 01:10:10;;;;;;;5.25;3.15;;;19.40;43.70;;;;;;1855232;77;21076;-54
2022/04/11 01:12:37;;;;;;;6.17;3.00;;;19.50;43.90;;;;;;1854826;77;21608;-57
2022/04/11 01:15:05;;;;;;;5.37;2.75;;;19.50;43.70;;;;;;1854579;77;21158;-55
2022/04/11 01:17:34;;;;;;;6.30;2.85;;;19.40;43.80;;;;;;1855060;77;21184;-53
2022/04/11 01:20:10;;;;;;;6.37;2.85;;;19.40;43.90;;;;;;1855149;77;21110;-55
2022/04/11 01:22:38;;;;;;;9.60;2.92;;;19.40;43.70;;;;;;1854741;77;21287;-51
2022/04/11 01:25:07;;;;;;;4.42;2.60;;;19.40;43.90;;;;;;1854833;77;21130;-56
2022/04/11 01:27:34;;;;;;;5.47;2.52;;;19.40;43.80;;;;;;1854383;77;21686;-56
2022/04/11 01:30:01;;;;;;;5.17;2.60;;;19.40;43.70;;;;;;1854755;77;22018;-56
2022/04/11 01:32:29;;;;;;;6.53;2.92;;;19.40;43.60;;;;;;1854963;77;21125;-55
2022/04/11 01:34:57;;;;;;;7.10;3.33;;;19.40;43.60;;;;;;1855157;77;21567;-55
2022/04/11 01:37:24;;;;;;;6.12;3.08;;;19.40;43.50;;;;;;1854576;77;21118;-55
2022/04/11 01:39:51;;;;;;;4.37;2.42;;;19.40;43.60;;;;;;1854977;77;21520;-57
2022/04/11 01:42:19;;;;;;;5.03;2.60;;;19.40;44.00;;;;;;1859218;76;21095;-53
2022/04/11 01:44:46;;;;;;;5.33;3.20;;;19.40;43.80;;;;;;1870243;76;21122;-55
2022/04/11 01:47:13;;;;;;;4.85;3.10;;;19.40;43.80;;;;;;1877593;76;21109;-52
2022/04/11 01:49:41;;;;;;;3.37;2.52;;;19.40;43.80;;;;;;1877542;76;21539;-55
2022/04/11 01:52:08;;;;;;;4.62;3.20;;;19.40;43.70;;;;;;1877635;76;21117;-55
2022/04/11 01:54:36;;;;;;;6.75;2.27;;;19.40;43.90;;;;;;1877728;76;21082;-55
2022/04/11 01:57:03;;;;;;;5.80;2.80;;;19.40;43.70;;;;;;1877675;76;21046;-52
2022/04/11 01:59:31;;;;;;;3.65;2.52;;;19.40;43.50;;;;;;1877812;76;21109;-56
2022/04/11 02:01:58;;;;;;;5.28;3.02;;;19.40;43.50;;;;;;1877607;76;21118;-56
2022/04/11 02:04:28;;;;;;;4.75;2.70;;;19.40;43.50;;;;;;1877178;76;21101;-55
2022/04/11 02:06:55;;;;;;;8.63;3.00;;;19.40;43.50;;;;;;1877560;75;21224;-54
2022/04/11 02:09:22;;;;;;;6.00;2.85;;;19.40;43.50;;;;;;1877579;76;21093;-56
2022/04/11 02:11:49;;;;;;;3.87;2.77;;;19.40;43.40;;;;;;1877589;76;21488;-51
2022/04/11 02:14:16;;;;;;;4.65;3.30;;;19.30;43.40;;;;;;1877810;76;21077;-56
2022/04/11 02:16:44;;;;;;;4.72;2.98;;;19.40;43.50;;;;;;1877739;76;21512;-58
2022/04/11 02:19:11;;;;;;;4.17;2.75;;;19.30;43.40;;;;;;1877360;76;21156;-56
2022/04/11 02:21:38;;;;;;;3.85;2.35;;;19.30;43.30;;;;;;1877440;76;21543;-57
2022/04/11 02:24:06;;;;;;;4.10;2.42;;;19.30;43.40;;;;;;1877646;76;21117;-57
2022/04/11 02:26:34;;;;;;;4.42;2.62;;;19.30;43.50;;;;;;1877610;76;21187;-55
2022/04/11 02:29:01;;;;;;;4.60;2.92;;;19.30;43.40;;;;;;1877855;76;22176;-53
2022/04/11 02:31:28;;;;;;;4.45;2.47;;;19.30;43.50;;;;;;1878185;76;21195;-52
2022/04/11 02:33:56;;;;;;;5.30;2.50;;;19.30;43.40;;;;;;1877964;76;21465;-52
2022/04/11 02:36:23;;;;;;;4.78;3.00;;;19.30;43.50;;;;;;1877668;76;21184;-57
2022/04/11 02:38:50;;;;;;;4.37;2.72;;;19.30;43.40;;;;;;1877669;76;21062;-55
2022/04/11 02:41:18;;;;;;;7.17;2.70;;;19.30;43.40;;;;;;1877723;76;21125;-57
2022/04/11 02:43:45;;;;;;;7.85;3.08;;;19.30;43.40;;;;;;1877843;76;21133;-54
2022/04/11 02:46:13;;;;;;;4.92;2.80;;;19.30;43.40;;;;;;1878124;76;21121;-56
2022/04/11 02:48:40;;;;;;;3.83;2.52;;;19.30;43.40;;;;;;1877635;76;21050;-56
2022/04/11 02:51:07;;;;;;;7.60;3.35;;;19.30;43.40;;;;;;1877637;76;21945;-55
2022/04/11 02:53:35;;;;;;;3.58;2.58;;;19.30;43.80;;;;;;1877662;76;21087;-54
2022/04/11 02:56:02;;;;;;;5.60;2.65;;;19.30;43.60;;;;;;1877602;76;21613;-54
2022/04/11 02:58:29;;;;;;;4.45;2.52;;;19.30;43.50;;;;;;1877880;76;21087;-55
2022/04/11 03:00:57;;;;;;;3.92;2.67;;;19.30;43.40;;;;;;1877741;76;21610;-54
2022/04/11 03:03:24;;;;;;;3.15;2.40;;;19.30;43.20;;;;;;1877501;76;21129;-55
2022/04/11 03:05:51;;;;;;;3.65;2.27;;;19.30;43.30;;;;;;1877311;76;21551;-54
2022/04/11 03:08:19;;;;;;;8.40;2.40;;;19.30;43.30;;;;;;1877952;76;21133;-54
2022/04/11 03:10:46;;;;;;;6.53;3.08;;;19.20;43.20;;;;;;1877468;76;21098;-55
2022/04/11 03:13:13;;;;;;;3.58;2.65;;;19.20;43.40;;;;;;1877479;76;21109;-57
2022/04/11 03:15:41;;;;;;;2.75;2.40;;;19.30;43.40;;;;;;1877788;76;21094;-52
2022/04/11 03:18:08;;;;;;;4.65;2.95;;;19.20;43.20;;;;;;1877203;76;21141;-57
2022/04/11 03:20:35;;;;;;;4.50;3.10;;;19.20;43.20;;;;;;1877383;76;21199;-54
2022/04/11 03:23:03;;;;;;;4.00;2.65;;;19.20;43.10;;;;;;1877234;76;21098;-55
2022/04/11 03:25:30;;;;;;;3.70;2.25;;;19.20;43.30;;;;;;1877427;76;21137;-55
2022/04/11 03:27:57;;;;;;;4.55;2.75;;;19.20;43.20;;;;;;1877362;76;21047;-56
2022/04/11 03:30:25;;;;;;;4.00;2.75;;;19.20;43.20;;;;;;1877191;76;21132;-55
2022/04/11 03:32:52;;;;;;;5.97;2.77;;;19.20;43.20;;;;;;1877274;76;21078;-56
2022/04/11 03:35:19;;;;;;;4.95;3.02;;;19.20;43.30;;;;;;1876983;76;22365;-58
2022/04/11 03:37:47;;;;;;;4.53;2.40;;;19.20;43.40;;;;;;1877257;76;21074;-56
2022/04/11 03:40:14;;;;;;;3.42;2.47;;;19.20;43.20;;;;;;1877203;76;21516;-54
2022/04/11 03:42:41;;;;;;;4.03;2.60;;;19.20;43.20;;;;;;1877119;76;21136;-54
2022/04/11 03:45:11;;;;;;;4.12;2.30;;;19.20;43.10;;;;;;1877414;76;21579;-54
2022/04/11 03:47:38;;;;;;;3.55;2.60;;;19.20;43.10;;;;;;1877641;75;21421;-56
2022/04/11 03:50:06;;;;;;;7.42;2.72;;;19.20;43.00;;;;;;1877926;76;21126;-55
2022/04/11 03:52:33;;;;;;;3.65;2.75;;;19.20;43.10;;;;;;1877940;76;21672;-56
2022/04/11 03:55:01;;;;;;;8.63;3.00;;;19.20;43.10;;;;;;1878039;76;21125;-56
2022/04/11 03:57:28;;;;;;;6.08;3.08;;;19.20;43.00;;;;;;1877674;76;21586;-54
2022/04/11 03:59:55;;;;;;;3.47;2.12;;;19.20;43.00;;;;;;1877784;76;21636;-56
2022/04/11 04:02:23;;;;;;;5.40;2.67;;;19.20;43.20;;;;;;1877528;76;21348;-55
2022/04/11 04:04:50;;;;;;;4.80;2.98;;;19.20;43.00;;;;;;1877645;76;21519;-55
2022/04/11 04:07:17;;;;;;;3.15;2.27;;;19.20;43.00;;;;;;1878052;76;21175;-53
2022/04/11 04:09:45;;;;;;;3.30;2.40;;;19.20;43.00;;;;;;1877728;76;21518;-54
2022/04/11 04:12:12;;;;;;;2.60;2.30;;;19.10;42.90;;;;;;1877551;76;21138;-55
2022/04/11 04:14:39;;;;;;;5.62;3.05;;;19.20;43.10;;;;;;1877867;76;21094;-55
2022/04/11 04:17:07;;;;;;;3.17;2.40;;;19.20;43.20;;;;;;1877802;76;21129;-57
2022/04/11 04:19:34;;;;;;;3.20;2.60;;;19.20;43.10;;;;;;1877983;76;21086;-54
2022/04/11 04:22:01;;;;;;;4.83;2.60;;;19.20;43.30;;;;;;1877876;76;21050;-56
2022/04/11 04:24:29;;;;;;;3.33;2.20;;;19.20;43.20;;;;;;1877767;76;21199;-54
2022/04/11 04:26:56;;;;;;;3.10;2.05;;;19.10;43.20;;;;;;1877615;76;21109;-53
2022/04/11 04:29:23;;;;;;;4.15;2.60;;;19.20;43.40;;;;;;1877710;76;21140;-55
2022/04/11 04:31:51;;;;;;;6.60;2.40;;;19.20;43.10;;;;;;1877616;76;21052;-56
2022/04/11 04:34:18;;;;;;;4.47;2.30;;;19.10;43.10;;;;;;1877604;76;21388;-53
2022/04/11 04:36:45;;;;;;;2.65;1.95;;;19.10;43.60;;;;;;1877519;76;21133;-54
2022/04/11 04:39:12;;;;;;;3.33;2.17;;;19.10;43.10;;;;;;1877316;76;21101;-54
2022/04/11 04:41:40;;;;;;;3.40;2.42;;;19.10;43.10;;;;;;1877300;76;21141;-54
2022/04/11 04:44:08;;;;;;;3.22;2.02;;;19.10;43.10;;;;;;1878004;76;21204;-54
2022/04/11 04:46:36;;;;;;;3.00;2.25;;;19.10;43.40;;;;;;1877570;76;21117;-58
2022/04/11 04:49:04;;;;;;;3.87;2.20;;;19.10;43.10;;;;;;1877679;76;21117;-55
2022/04/11 04:51:31;;;;;;;3.55;2.27;;;19.20;43.40;;;;;;1877334;76;21619;-56
2022/04/11 04:53:58;;;;;;;4.90;2.47;;;19.10;43.20;;;;;;1877722;76;21195;-56
2022/04/11 04:56:28;;;;;;;6.28;2.72;;;19.10;43.30;;;;;;1877722;76;22469;-55
2022/04/11 04:58:55;;;;;;;2.72;2.00;;;19.10;43.30;;;;;;1877650;75;21106;-53
2022/04/11 05:01:23;;;;;;;3.62;2.30;;;19.10;43.30;;;;;;1877548;76;21109;-54
2022/04/11 05:03:51;;;;;;;4.83;2.58;;;19.10;43.30;;;;;;1877320;76;21133;-58
2022/04/11 05:06:18;;;;;;;4.62;2.77;;;19.10;43.30;;;;;;1877585;76;21831;-54
2022/04/11 05:08:45;;;;;;;3.75;2.52;;;19.20;43.30;;;;;;1877402;76;21200;-54
2022/04/11 05:11:13;;;;;;;4.90;2.72;;;19.10;43.40;;;;;;1877125;76;21137;-56
2022/04/11 05:13:40;;;;;;;4.60;1.87;;;19.10;43.30;;;;;;1877497;76;21110;-58
2022/04/11 05:16:08;;;;;;;4.70;2.40;;;19.10;43.40;;;;;;1877392;76;21144;-58
2022/04/11 05:18:35;;;;;;;2.67;2.20;;;19.20;43.40;;;;;;1877673;76;21110;-55
2022/04/11 05:21:02;;;;;;;4.08;2.42;;;19.10;43.60;;;;;;1877473;76;21171;-57
2022/04/11 05:23:30;;;;;;;4.30;2.50;;;19.20;43.60;;;;;;1877643;76;21144;-56
2022/04/11 05:25:57;;;;;;;2.77;2.40;;;19.10;43.40;;;;;;1877545;76;21116;-56
2022/04/11 05:28:25;;;;;;;3.50;2.17;;;19.10;43.20;;;;;;1877689;76;21195;-56
2022/04/11 05:30:52;;;;;;;4.08;2.33;;;19.20;43.20;;;;;;1877656;76;21137;-54
2022/04/11 05:33:19;;;;;;;3.25;2.33;;;19.20;43.50;;;;;;1877397;76;21183;-54
2022/04/11 05:35:47;;;;;;;5.90;2.35;;;19.20;43.40;;;;;;1877744;76;21126;-56
2022/04/11 05:38:16;;;;;;;5.62;2.47;;;19.10;43.30;;;;;;1877134;76;21110;-57
2022/04/11 05:40:44;;;;;;;3.40;2.20;;;19.20;43.60;;;;;;1877231;76;21129;-54
2022/04/11 05:43:16;;;;;;;5.40;2.35;;;19.20;43.60;;;;;;1877398;76;21117;-56
2022/04/11 05:45:41;;;;;;;5.40;2.20;;;19.20;43.60;;;;;;1877164;76;21098;-53
2022/04/11 05:48:09;;;;;;;3.37;2.58;;;19.20;43.70;;;;;;1877807;76;21657;-57
2022/04/11 05:50:37;;;;;;;3.30;1.90;;;19.20;43.40;;;;;;1877821;76;21555;-57
2022/04/11 05:53:04;;;;;;;2.92;2.30;;;19.20;43.40;;;;;;1877664;76;21611;-57
2022/04/11 05:55:31;;;;;;;3.55;2.22;;;19.20;43.60;;;;;;1877312;75;21109;-56
2022/04/11 05:57:59;;;;;;;2.12;1.80;;;19.20;43.40;;;;;;1875381;75;21737;-55
2022/04/11 06:00:26;;;;;;;4.25;2.42;;;19.20;43.20;;;;;;1874732;76;21115;-54
2022/04/11 06:02:54;;;;;;;4.83;2.25;;;19.20;42.60;;;;;;1874622;76;21070;-56
2022/04/11 06:05:21;;;;;;;4.80;2.17;;;19.10;42.60;;;;;;1874077;76;21040;-56
2022/04/11 06:07:48;;;;;;;4.05;2.60;;;19.10;43.20;;;;;;1874441;76;21083;-58
2022/04/11 06:10:16;;;;;;;4.05;2.62;;;19.00;42.40;;;;;;1875741;75;21506;-54
2022/04/11 06:12:43;;;;;;;3.37;2.70;;;19.00;42.30;;;;;;1875182;76;21126;-56
2022/04/11 06:15:17;;;;;;;7.75;2.90;;;19.00;42.20;;;;;;1874433;76;21431;-55
2022/04/11 06:17:39;;;;;;;5.17;3.05;;;19.00;42.00;;;;;;1873354;76;21537;-57
2022/04/11 06:20:07;;;;;;;4.10;2.75;;;19.00;41.90;;;;;;1875379;76;21093;-57
2022/04/11 06:22:40;;;;;;;3.40;2.27;;;19.00;41.80;;;;;;1875091;76;21559;-57
2022/04/11 06:25:08;;;;;;;4.12;2.67;;;19.00;41.70;;;;;;1875024;76;21200;-57
2022/04/11 06:27:39;;;;;;;4.55;3.00;;;19.00;41.60;;;;;;1874243;76;21129;-55
2022/04/11 06:30:07;;;;;;;4.50;2.70;;;19.00;41.50;;;;;;1875557;76;21094;-55
2022/04/11 06:32:34;;;;;;;3.87;2.90;;;19.00;41.30;;;;;;1885390;75;21539;-59
2022/04/11 06:35:02;;;;;;;5.12;2.98;;;19.00;41.00;;;;;;1909929;75;21059;-54
2022/04/11 06:37:29;;;;;;;6.92;3.05;;;19.00;41.00;;;;;;1910142;75;21102;-58
2022/04/11 06:39:58;;;;;;;7.17;2.70;;;19.00;40.90;;;;;;1910040;75;21196;-57
2022/04/11 06:42:25;;;;;;;4.25;3.12;;;18.90;40.80;;;;;;1878308;75;21159;-58
2022/04/11 06:44:52;;;;;;;5.72;3.02;;;18.90;40.80;;;;;;1904091;75;21092;-57
2022/04/11 06:47:21;;;;;;;6.95;3.30;;;18.90;40.80;;;;;;1888843;75;21525;-58
2022/04/11 06:49:49;;;;;;;5.03;2.70;;;19.00;40.70;;;;;;1886452;76;21130;-53
2022/04/11 06:52:16;;;;;;;7.45;4.30;;;18.90;40.70;;;;;;1886296;76;21588;-55
2022/04/11 06:54:45;;;;;;;5.30;2.75;;;18.90;40.70;;;;;;1886540;76;21099;-56
2022/04/11 06:57:12;;;;;;;5.62;3.10;;;18.90;40.60;;;;;;1886479;76;21120;-56
2022/04/11 06:59:40;;;;;;;4.90;2.67;;;18.90;40.60;;;;;;1886659;76;21177;-54
2022/04/11 07:02:08;;;;;;;4.72;2.55;;;19.00;40.60;;;;;;1886556;76;21088;-56
2022/04/11 07:04:35;;;;;;;4.42;2.70;;;18.90;40.50;;;;;;1886459;76;21095;-56
2022/04/11 07:07:02;;;;;;;4.28;3.00;;;18.90;40.40;;;;;;1886351;76;21434;-56
2022/04/11 07:09:31;;;;;;;4.12;2.55;;;19.00;40.50;;;;;;1886425;76;21556;-54
2022/04/11 07:11:58;;;;;;;4.92;2.95;;;19.00;40.30;;;;;;1886616;76;21938;-55
2022/04/11 07:14:26;;;;;;;6.53;2.98;;;19.00;40.30;;;;;;1885853;75;21329;-54
2022/04/11 07:16:53;;;;;;;7.50;3.25;;;19.00;40.20;;;;;;1874875;75;21116;-55
2022/04/11 07:19:21;;;;;;;9.40;3.20;;;19.00;40.20;;;;;;1882071;75;21074;-54
2022/04/11 07:21:48;;;;;;;8.20;3.30;;;19.00;40.10;;;;;;1885715;76;21180;-54
2022/04/11 07:24:15;;;;;;;5.75;3.10;;;19.10;40.30;;;;;;1886841;76;21100;-56
2022/04/11 07:26:43;;;;;;;4.78;2.75;;;19.10;40.20;;;;;;1877864;75;21080;-55
2022/04/11 07:29:10;;;;;;;5.37;3.30;;;19.10;40.00;;;;;;1873462;75;21107;-54
2022/04/11 07:31:37;;;;;;;5.10;3.08;;;19.20;40.10;;;;;;1872891;75;21070;-55
2022/04/11 07:34:05;;;;;;;3.65;2.80;;;19.20;39.90;;;;;;1873760;75;21608;-55
2022/04/11 07:36:32;;;;;;;7.30;3.15;;;19.20;39.90;;;;;;1863539;75;21108;-56
2022/04/11 07:38:59;;;;;;;5.28;3.27;;;19.20;39.80;;;;;;1873404;76;21508;-55
2022/04/11 07:41:27;;;;;;;5.08;2.98;;;19.30;39.90;;;;;;1879905;76;21083;-56
2022/04/11 07:43:54;;;;;;;4.80;3.50;;;19.30;39.90;;;;;;1881040;76;21522;-55
2022/04/11 07:46:22;;;;;;;5.62;3.00;;;19.30;39.70;;;;;;1878913;75;21667;-54
2022/04/11 07:48:50;;;;;;;6.25;3.27;;;19.40;39.60;;;;;;1878733;76;21106;-54
2022/04/11 07:51:17;;;;;;;5.12;2.98;;;19.40;39.50;;;;;;1882660;75;21099;-53
2022/04/11 07:53:44;;;;;;;6.17;3.02;;;19.40;39.60;;;;;;1874117;75;21565;-56
2022/04/11 07:56:12;;;;;;;4.00;2.95;;;19.40;39.40;;;;;;1862286;75;21030;-54
2022/04/11 07:58:39;;;;;;;6.53;3.33;;;19.50;39.40;;;;;;1856640;75;21150;-55
2022/04/11 08:01:06;;;;;;;5.50;3.17;;;19.50;39.20;;;;;;1873476;75;21068;-55
2022/04/11 08:03:34;;;;;;;5.45;3.00;;;19.50;39.40;;;;;;1873199;75;21178;-55
2022/04/11 08:06:01;;;;;;;6.20;2.87;;;19.50;39.30;;;;;;1856172;76;21628;-54
2022/04/11 08:08:28;;;;;;;8.13;3.22;;;19.50;39.30;;;;;;1872509;76;21122;-55
2022/04/11 08:10:56;;;;;;;4.70;2.67;;;19.60;39.40;;;;;;1877520;76;21189;-55
2022/04/11 08:13:23;;;;;;;5.33;3.00;;;19.60;39.10;;;;;;1865344;76;21184;-55
2022/04/11 08:15:51;;;;;;;5.33;2.85;;;19.70;39.00;;;;;;1859922;75;21575;-55
2022/04/11 08:18:18;;;;;;;5.97;2.87;;;19.70;39.00;;;;;;1854051;76;21067;-57
2022/04/11 08:20:45;;;;;;;3.95;2.47;;;19.80;39.00;;;;;;1865125;76;21534;-53
2022/04/11 08:23:13;;;;;;;5.72;2.58;;;19.80;39.10;;;;;;1850253;76;21060;-55
2022/04/11 08:25:40;;;;;;;4.20;2.92;;;19.90;39.20;;;;;;1854820;76;21601;-56
2022/04/11 08:28:07;;;;;;;4.08;2.22;;;19.90;39.30;;;;;;1855381;76;21069;-55
2022/04/11 08:30:35;;;;;;;9.75;2.85;;;19.90;39.60;;;;;;1870240;75;21055;-56
2022/04/11 08:33:03;;;;;;;7.92;2.58;;;20.00;39.70;;;;;;1871317;75;21093;-53
2022/04/11 08:35:30;;;;;;;9.98;2.90;;;20.00;39.80;;;;;;1857008;76;21195;-54
2022/04/11 08:37:57;;;;;;;7.50;3.15;;;20.00;40.00;;;;;;1842295;76;21140;-54
2022/04/11 08:40:25;;;;;;;6.28;2.98;;;20.10;39.90;;;;;;1848249;75;21062;-53
2022/04/11 08:42:52;;;;;;;3.87;3.00;;;20.10;39.70;;;;;;1867181;75;21094;-55
2022/04/11 08:45:20;;;;;;;8.90;3.10;;;20.20;39.40;;;;;;1844601;75;21078;-55
2022/04/11 08:47:48;;;;;;;8.35;3.72;;;20.00;36.60;;;;;;1869040;76;21419;-55
2022/04/11 08:50:15;;;;;;;7.28;3.60;;;19.80;34.90;;;;;;1854093;77;21065;-52
2022/04/11 08:52:43;;;;;;;4.28;2.70;;;19.60;34.50;;;;;;1855011;77;21663;-55
2022/04/11 08:55:11;;;;;;;6.20;2.70;;;19.60;35.50;;;;;;1862514;76;21126;-56
2022/04/11 08:57:38;;;;;;;6.80;2.30;;;19.80;38.30;;;;;;1871758;76;21098;-54
2022/04/11 09:00:09;;;;;;;5.40;2.42;;;19.90;37.40;;;;;;1858176;76;21097;-58
2022/04/11 09:02:36;;;;;;;;;;;20.00;37.50;;;;;;1869941;76;21130;-56
2022/04/11 09:05:04;;;;;;;5.20;2.35;;;20.10;37.80;;;;;;1858959;76;20172;-58
2022/04/11 09:07:54;;;;;;;4.42;2.25;;;20.20;38.00;;;;;;1855012;77;21042;-56
2022/04/11 09:10:26;;;;;;;4.03;2.10;;;20.20;38.10;;;;;;1867077;76;21140;-57
2022/04/11 09:12:56;;;;;;;4.58;2.42;;;20.30;38.20;;;;;;1870170;77;21118;-56
2022/04/11 09:15:23;;;;;;;4.40;2.45;;;20.30;38.20;;;;;;1856781;76;21096;-56
2022/04/11 09:17:51;;;;;;;5.65;2.45;;;20.40;38.30;;;;;;1857472;76;21085;-55
2022/04/11 09:20:21;;;;;;;3.90;2.00;;;20.30;38.30;;;;;;1869518;76;21087;-56
2022/04/11 09:22:48;;;;;;;6.93;2.13;;;20.40;38.40;;;;;;1862544;76;21052;-56
2022/04/11 09:25:17;;;;;;;3.85;2.15;;;20.40;38.40;;;;;;1867633;76;21792;-58
2022/04/11 09:27:45;;;;;;;3.52;2.02;;;20.40;38.50;;;;;;1869541;76;21108;-53
2022/04/11 09:30:25;;;;;;;3.12;1.95;;;20.50;38.50;;;;;;1867307;76;21494;-55
2022/04/11 09:32:53;;;;;;;2.40;1.87;;;20.50;38.60;;;;;;1865242;75;21168;-57
2022/04/11 09:35:22;;;;;;;4.50;2.30;;;20.50;38.60;;;;;;1869724;76;21043;-55
2022/04/11 09:38:06;;;;;;;5.17;2.02;;;20.60;38.60;;;;;;1869240;76;21084;-55
2022/04/11 09:40:41;;;;;;;3.62;2.12;;;20.60;38.60;;;;;;1883437;76;21161;-56
2022/04/11 09:43:10;;;;;;;5.65;2.30;;;20.60;38.60;;;;;;1880076;76;21191;-53
2022/04/11 09:45:48;;;;;;;3.12;1.77;;;20.60;38.60;;;;;;1856240;76;21467;-55
2022/04/11 09:48:22;;;;;;;2.87;1.90;;;20.70;38.50;;;;;;1854771;77;21151;-55
2022/04/11 09:50:50;;;;;;;6.12;2.25;;;20.80;38.60;;;;;;1869093;76;21137;-57
2022/04/11 09:53:23;;;;;;;3.90;1.82;;;20.80;38.60;;;;;;1870100;77;21140;-56
2022/04/11 09:55:52;;;;;;;3.62;2.08;;;20.80;38.70;;;;;;1867072;76;21193;-55
2022/04/11 09:58:21;;;;;;;2.62;1.90;;;20.80;38.80;;;;;;1870063;77;21115;-57
2022/04/11 10:00:50;;;;;;;3.30;2.10;;;20.80;38.70;;;;;;1870174;77;21108;-55
2022/04/11 10:03:18;;;;;;;4.08;2.00;;;20.80;38.70;;;;;;1868061;77;21064;-56
2022/04/11 10:05:46;;;;;;;2.10;1.80;;;20.90;38.80;;;;;;1845714;77;21122;-55
2022/04/11 10:08:13;;;;;;;4.45;2.08;;;20.90;38.80;;;;;;1875053;76;21600;-56
2022/04/11 10:10:41;;;;;;;4.58;1.85;;;20.90;38.80;;;;;;1886292;76;21063;-56
2022/04/11 10:13:11;;;;;;;37.80;2.62;;;20.90;39.00;;;;;;1886331;76;22258;-55
2022/04/11 10:15:39;;;;;;;3.90;1.50;;;21.00;38.90;;;;;;1886864;76;21071;-56
2022/04/11 10:18:07;;;;;;;2.45;1.75;;;21.00;38.90;;;;;;1886546;76;21448;-56
2022/04/11 10:20:38;;;;;;;2.47;1.90;;;21.00;39.10;;;;;;1886426;76;21091;-55
2022/04/11 10:23:17;;;;;;;4.25;2.40;;;21.00;39.00;;;;;;1879032;76;21195;-58
2022/04/11 10:25:49;;;;;;;2.58;1.67;;;21.00;39.10;;;;;;1873205;75;21100;-55
2022/04/11 10:28:20;;;;;;;4.53;2.22;;;21.00;39.20;;;;;;1865035;76;21592;-53
2022/04/11 10:30:48;;;;;;;;;;;21.10;39.10;;;;;;1882956;76;21102;-54
2022/04/11 10:33:15;;;;;;;3.92;2.00;;;21.10;39.00;;;;;;1870282;76;20157;-54
2022/04/11 10:35:44;;;;;;;2.67;1.82;;;21.10;39.10;;;;;;1863710;76;21069;-56
2022/04/11 10:38:12;;;;;;;3.72;1.80;;;21.10;39.10;;;;;;1854574;76;21147;-56
2022/04/11 10:40:47;;;;;;;2.75;1.82;;;21.10;39.10;;;;;;1854524;77;21102;-56
2022/04/11 10:43:16;;;;;;;4.08;2.17;;;21.20;39.20;;;;;;1854501;77;21516;-56
2022/04/11 10:45:57;;;;;;;3.85;1.80;;;21.20;39.10;;;;;;1855103;77;21138;-56
2022/04/11 10:48:27;;;;;;;4.42;2.12;;;21.20;38.90;;;;;;1869815;76;21586;-57
2022/04/11 10:50:55;;;;;;;3.02;1.77;;;21.20;39.00;;;;;;1867083;76;21133;-55
2022/04/11 10:53:25;;;;;;;2.25;1.70;;;21.30;39.10;;;;;;1877289;76;21185;-56
2022/04/11 10:56:06;;;;;;;2.55;1.77;;;21.30;38.90;;;;;;1877422;76;21566;-55
2022/04/11 10:58:49;;;;;;;;;;;21.30;38.90;;;;;;1878123;75;21128;-55
2022/04/11 11:01:18;;;;;;;2.80;1.85;;;21.30;38.90;;;;;;1886941;75;20239;-54
2022/04/11 11:03:58;;;;;;;3.92;2.10;;;21.30;39.00;;;;;;1860296;75;21081;-56
2022/04/11 11:06:26;;;;;;;2.33;1.60;;;21.30;38.70;;;;;;1886518;75;21157;-55
2022/04/11 11:08:53;;;;;;;2.42;1.87;;;21.30;39.00;;;;;;1880194;75;21145;-56
2022/04/11 11:11:25;;;;;;;4.30;1.80;;;21.40;38.90;;;;;;1876577;75;21076;-56
2022/04/11 11:13:55;;;;;;;8.70;2.05;;;21.50;39.10;;;;;;1876761;76;22329;-52
2022/04/11 11:16:27;;;;;;;4.00;1.92;;;21.30;35.90;;;;;;1876223;75;21185;-51
2022/04/11 11:18:58;;;;;;;2.58;1.70;;;21.00;35.50;;;;;;1878784;76;21139;-49
2022/04/11 11:21:36;;;;;;;7.33;2.55;;;20.90;34.70;;;;;;1881664;75;21706;-52
2022/04/11 11:24:12;;;;;;;8.30;2.20;;;20.70;34.40;;;;;;1869518;76;21612;-50
2022/04/11 11:26:52;;;;;;;4.67;2.05;;;20.60;34.10;;;;;;1869263;76;21604;-51
2022/04/11 11:29:33;;;;;;;5.28;2.00;;;20.60;34.30;;;;;;1870133;76;21069;-52
2022/04/11 11:32:05;;;;;;;9.73;1.75;;;20.60;33.60;;;;;;1864337;76;21088;-49
2022/04/11 11:34:33;;;;;;;9.93;2.20;;;20.60;34.00;;;;;;1870088;76;21088;-50
2022/04/11 11:37:02;;;;;;;4.72;2.15;;;20.70;34.00;;;;;;1876409;76;21060;-54
2022/04/11 11:39:30;;;;;;;2.58;1.60;;;20.60;34.20;;;;;;1876365;76;21049;-49
2022/04/11 11:42:05;;;;;;;5.45;2.30;;;20.50;34.40;;;;;;1865064;76;21122;-49
2022/04/11 11:44:32;;;;;;;2.60;1.72;;;20.50;33.00;;;;;;1862829;77;21069;-51
2022/04/11 11:47:03;;;;;;;2.22;1.62;;;20.50;33.00;;;;;;1863558;76;21474;-49
2022/04/11 11:49:39;;;;;;;4.05;1.87;;;20.50;33.70;;;;;;1863753;77;21063;-50
2022/04/11 11:52:14;;;;;;;3.17;1.80;;;20.50;33.00;;;;;;1860053;77;21916;-49
2022/04/11 11:54:44;;;;;;;7.10;2.15;;;20.60;33.00;;;;;;1857735;77;21110;-50
2022/04/11 11:57:28;;;;;;;5.50;1.87;;;20.50;33.00;;;;;;1861647;77;21071;-50
2022/04/11 12:00:03;;;;;;;3.83;1.75;;;20.60;33.00;;;;;;1864173;76;21102;-50
2022/04/11 12:05:24;;;;;;;3.90;1.70;;;20.60;32.70;;;;;;1863926;77;21173;-48
2022/04/11 12:07:54;;;;;;;3.12;1.80;;;20.50;33.30;;;;;;1863444;77;21152;-52
2022/04/11 12:10:21;;;;;;;2.72;2.00;;;20.50;32.60;;;;;;1861394;76;21639;-48
2022/04/11 12:12:49;;;;;;;3.98;1.75;;;20.40;32.50;;;;;;1863511;77;21221;-47
2022/04/11 12:15:17;;;;;;;3.70;2.02;;;20.30;32.50;;;;;;1881647;75;21651;-49
2022/04/11 12:17:46;;;;;;;2.62;1.90;;;20.20;32.60;;;;;;1863931;76;21130;-51
2022/04/11 12:20:15;;;;;;;4.78;2.10;;;20.30;33.10;;;;;;1875274;76;21208;-48
2022/04/11 12:23:02;;;;;;;2.67;1.60;;;20.30;32.50;;;;;;1877783;76;21119;-49
2022/04/11 12:25:32;;;;;;;3.27;1.72;;;20.40;32.90;;;;;;1813428;76;21277;-50
2022/04/11 12:28:19;;;;;;;8.75;2.35;;;20.40;32.20;;;;;;1809151;76;21194;-49
2022/04/11 12:30:48;;;;;;;4.17;1.67;;;20.30;32.30;;;;;;1843226;76;21175;-49
2022/04/11 12:33:36;;;;;;;3.72;1.77;;;20.10;30.80;;;;;;1876886;76;21180;-49
2022/04/11 12:36:19;;;;;;;4.62;1.95;;;20.10;31.80;;;;;;1876694;76;21242;-49
2022/04/11 12:38:48;;;;;;;5.53;1.60;;;19.80;31.10;;;;;;1877101;76;21590;-48
2022/04/11 12:41:25;;;;;;;5.53;1.70;;;19.80;31.70;;;;;;1877474;76;21102;-47
2022/04/11 12:44:09;;;;;;;4.50;1.70;;;19.80;31.50;;;;;;1861472;76;21145;-48
2022/04/11 12:46:41;;;;;;;6.60;1.50;;;19.70;30.40;;;;;;1876566;76;21063;-51
2022/04/11 12:49:09;;;;;;;4.67;1.60;;;19.80;30.50;;;;;;1876711;76;21838;-46
2022/04/11 12:51:37;;;;;;;5.42;1.42;;;19.90;31.10;;;;;;1877698;76;21051;-52
2022/04/11 12:54:10;;;;;;;2.83;1.92;;;20.00;31.50;;;;;;1877740;76;21196;-49
2022/04/11 12:56:45;;;;;;;3.37;1.75;;;19.80;30.70;;;;;;1877120;76;21059;-53
2022/04/11 12:59:14;;;;;;;5.85;1.72;;;20.00;30.80;;;;;;1877881;76;21183;-45